Time;durP1;ratioP1;P1;durP2;ratioP2;P2;SDS_P1;SDS_P2;PMS_P1;PMS_P2;Temp;Humidity;BMP_temperature;BMP_pressure;BME280_temperature;BME280_humidity;BME280_pressure;Samples;Min_cycle;Max_cycle;Signal;HPM_P1;HPM_P2
2022/09/15 00:01:11;;;;;;;4.05;2.20;;;;;;;;;;5140626;27;20597;-66
2022/09/15 00:03:39;;;;;;;4.32;2.03;;;;;;;;;;5141733;27;20297;-66
2022/09/15 00:06:07;;;;;;;4.05;2.35;;;;;;;;;;5141739;27;20379;-66
2022/09/15 00:08:35;;;;;;;2.78;2.00;;;;;;;;;;5141946;27;20661;-66
2022/09/15 00:11:06;;;;;;;4.15;2.30;;;;;;;;;;5140459;27;20232;-66
2022/09/15 00:13:34;;;;;;;3.75;2.22;;;;;;;;;;5141104;27;20653;-66
2022/09/15 00:16:03;;;;;;;3.65;2.20;;;;;;;;;;5141211;27;20352;-66
2022/09/15 00:18:30;;;;;;;2.60;2.15;;;;;;;;;;5141188;27;20537;-66
2022/09/15 00:20:58;;;;;;;3.47;2.15;;;;;;;;;;5140263;27;20198;-66
2022/09/15 00:23:25;;;;;;;3.13;1.98;;;;;;;;;;5140489;27;20198;-66
2022/09/15 00:25:54;;;;;;;3.13;2.15;;;;;;;;;;5141622;27;20613;-66
2022/09/15 00:28:22;;;;;;;3.15;2.00;;;;;;;;;;5141436;27;20294;-66
2022/09/15 00:30:50;;;;;;;3.50;2.00;;;;;;;;;;5140327;27;20301;-66
2022/09/15 00:33:20;;;;;;;3.75;2.00;;;;;;;;;;5141019;27;20202;-66
2022/09/15 00:35:48;;;;;;;4.03;2.00;;;;;;;;;;5141060;27;20300;-66
2022/09/15 00:38:16;;;;;;;2.80;1.90;;;;;;;;;;5141741;27;20210;-66
2022/09/15 00:40:44;;;;;;;3.03;2.05;;;;;;;;;;5140283;27;20202;-66
2022/09/15 00:43:12;;;;;;;2.38;1.80;;;;;;;;;;5141486;27;20494;-66
2022/09/15 00:45:40;;;;;;;2.13;1.60;;;;;;;;;;5141131;27;20267;-66
2022/09/15 00:48:08;;;;;;;2.42;1.80;;;;;;;;;;5141420;27;20326;-66
2022/09/15 00:50:38;;;;;;;2.70;1.65;;;;;;;;;;5141003;27;20238;-66
2022/09/15 00:53:07;;;;;;;2.60;1.83;;;;;;;;;;5120337;28;20206;-66
2022/09/15 00:55:36;;;;;;;2.15;1.63;;;;;;;;;;5120404;28;20206;-65
2022/09/15 00:58:05;;;;;;;2.20;1.33;;;;;;;;;;5121079;28;20418;-69
2022/09/15 01:00:33;;;;;;;2.85;1.65;;;;;;;;;;5120871;28;20203;-66
2022/09/15 01:03:01;;;;;;;2.30;1.63;;;;;;;;;;5140025;27;20547;-66
2022/09/15 01:05:31;;;;;;;2.30;1.60;;;;;;;;;;5140138;27;20217;-66
2022/09/15 01:08:01;;;;;;;2.45;1.60;;;;;;;;;;5140354;27;20287;-66
2022/09/15 01:10:30;;;;;;;1.88;1.40;;;;;;;;;;5140620;27;20617;-66
2022/09/15 01:12:58;;;;;;;2.50;1.58;;;;;;;;;;5139039;27;20297;-66
2022/09/15 01:15:30;;;;;;;2.25;1.45;;;;;;;;;;5140608;27;20294;-66
2022/09/15 01:18:02;;;;;;;2.70;1.52;;;;;;;;;;5140268;27;20190;-66
2022/09/15 01:20:41;;;;;;;1.52;1.30;;;;;;;;;;5139535;27;20625;-66
2022/09/15 01:23:38;;;;;;;2.20;1.48;;;;;;;;;;5140326;27;20284;-66
2022/09/15 01:26:26;;;;;;;2.65;1.50;;;;;;;;;;5140567;27;20485;-66
2022/09/15 01:29:03;;;;;;;1.75;1.30;;;;;;;;;;5140233;27;20229;-65
2022/09/15 01:31:35;;;;;;;2.30;1.48;;;;;;;;;;5139746;27;20545;-65
2022/09/15 01:34:05;;;;;;;1.83;1.20;;;;;;;;;;5140179;27;20202;-66
2022/09/15 01:36:38;;;;;;;2.20;1.30;;;;;;;;;;5140308;27;20198;-65
2022/09/15 01:39:08;;;;;;;2.10;1.38;;;;;;;;;;5140736;27;20202;-65
2022/09/15 01:41:38;;;;;;;2.70;1.30;;;;;;;;;;5137957;27;20285;-65
2022/09/15 01:44:07;;;;;;;1.85;1.30;;;;;;;;;;5140292;27;20325;-65
2022/09/15 01:46:38;;;;;;;1.60;1.30;;;;;;;;;;5140183;27;20746;-65
2022/09/15 01:49:06;;;;;;;1.98;1.42;;;;;;;;;;5140123;27;20267;-65
2022/09/15 01:51:34;;;;;;;1.90;1.13;;;;;;;;;;5139493;27;20487;-65
2022/09/15 01:54:03;;;;;;;1.73;1.10;;;;;;;;;;5139884;27;20209;-66
2022/09/15 01:56:31;;;;;;;2.08;1.40;;;;;;;;;;5139412;27;20297;-65
2022/09/15 01:58:58;;;;;;;2.53;1.38;;;;;;;;;;5140261;27;20234;-65
2022/09/15 02:01:31;;;;;;;1.55;1.10;;;;;;;;;;5139323;27;20661;-66
2022/09/15 02:04:03;;;;;;;1.80;1.15;;;;;;;;;;5139975;27;20234;-65
2022/09/15 02:06:36;;;;;;;1.20;1.08;;;;;;;;;;5140240;27;20647;-65
2022/09/15 02:09:06;;;;;;;1.38;1.08;;;;;;;;;;5139643;27;20217;-65
2022/09/15 02:11:35;;;;;;;1.13;1.00;;;;;;;;;;5139506;27;20310;-65
2022/09/15 02:14:10;;;;;;;1.55;1.00;;;;;;;;;;5139774;27;20206;-65
2022/09/15 02:16:38;;;;;;;1.17;1.00;;;;;;;;;;5140277;27;20578;-65
2022/09/15 02:19:20;;;;;;;1.70;1.20;;;;;;;;;;5139795;27;20292;-65
2022/09/15 02:21:52;;;;;;;1.73;1.02;;;;;;;;;;5137359;27;20210;-65
2022/09/15 02:24:23;;;;;;;2.10;1.10;;;;;;;;;;5139668;27;20206;-65
2022/09/15 02:26:53;;;;;;;1.58;1.00;;;;;;;;;;5139087;27;20221;-65
2022/09/15 02:29:20;;;;;;;1.60;1.20;;;;;;;;;;5139365;27;20213;-65
2022/09/15 02:31:51;;;;;;;1.20;0.90;;;;;;;;;;5138324;27;20276;-65
2022/09/15 02:34:23;;;;;;;1.35;1.13;;;;;;;;;;5139049;27;20298;-65
2022/09/15 02:36:53;;;;;;;0.90;0.70;;;;;;;;;;5138859;27;20263;-65
2022/09/15 02:39:22;;;;;;;1.08;0.93;;;;;;;;;;5138923;27;20245;-65
2022/09/15 02:41:50;;;;;;;1.73;1.30;;;;;;;;;;5138038;27;20470;-65
2022/09/15 02:44:19;;;;;;;1.40;1.17;;;;;;;;;;5138770;27;20284;-65
2022/09/15 02:46:46;;;;;;;0.93;0.80;;;;;;;;;;5138905;27;20570;-65
2022/09/15 02:49:14;;;;;;;0.85;0.80;;;;;;;;;;5138720;27;20237;-65
2022/09/15 02:51:43;;;;;;;1.58;0.90;;;;;;;;;;5138152;27;20293;-65
2022/09/15 02:54:11;;;;;;;1.50;0.80;;;;;;;;;;5137986;27;20292;-65
2022/09/15 02:56:38;;;;;;;1.08;0.82;;;;;;;;;;5137780;27;20212;-69
2022/09/15 02:59:06;;;;;;;1.33;0.82;;;;;;;;;;5137892;27;20664;-65
2022/09/15 03:01:33;;;;;;;1.23;1.00;;;;;;;;;;5137517;27;20289;-65
2022/09/15 03:04:01;;;;;;;1.25;0.85;;;;;;;;;;5138678;27;20202;-65
2022/09/15 03:06:33;;;;;;;1.50;1.08;;;;;;;;;;5139065;27;20666;-65
2022/09/15 03:09:03;;;;;;;1.60;0.95;;;;;;;;;;5138202;27;20222;-66
2022/09/15 03:11:31;;;;;;;1.17;0.90;;;;;;;;;;5138278;27;20252;-65
2022/09/15 03:13:59;;;;;;;0.90;0.80;;;;;;;;;;5138598;27;20263;-65
2022/09/15 03:16:27;;;;;;;1.17;1.00;;;;;;;;;;5138942;27;20638;-65
2022/09/15 03:18:55;;;;;;;1.10;0.80;;;;;;;;;;5138752;27;20198;-65
2022/09/15 03:21:23;;;;;;;1.27;0.80;;;;;;;;;;5138214;27;20198;-65
2022/09/15 03:23:50;;;;;;;0.95;0.70;;;;;;;;;;5138341;28;20306;-65
2022/09/15 03:26:19;;;;;;;0.88;0.70;;;;;;;;;;5138018;28;20570;-65
2022/09/15 03:28:47;;;;;;;1.05;0.80;;;;;;;;;;5138116;28;20226;-65
2022/09/15 03:31:14;;;;;;;1.40;0.85;;;;;;;;;;5137254;28;20251;-65
2022/09/15 03:33:42;;;;;;;1.38;0.90;;;;;;;;;;5137947;28;20309;-65
2022/09/15 03:36:10;;;;;;;1.23;0.90;;;;;;;;;;5138188;28;20267;-65
2022/09/15 03:38:37;;;;;;;0.70;0.70;;;;;;;;;;5137942;27;20198;-65
2022/09/15 03:41:06;;;;;;;1.02;0.70;;;;;;;;;;5137845;28;20285;-66
2022/09/15 03:43:35;;;;;;;0.93;0.60;;;;;;;;;;5137732;28;20332;-65
2022/09/15 03:46:04;;;;;;;1.02;0.80;;;;;;;;;;5138136;28;20267;-65
2022/09/15 03:48:32;;;;;;;0.88;0.68;;;;;;;;;;5137855;28;20222;-66
2022/09/15 03:50:59;;;;;;;0.80;0.70;;;;;;;;;;5137337;28;20251;-65
2022/09/15 03:53:27;;;;;;;0.68;0.60;;;;;;;;;;5137021;28;20289;-65
2022/09/15 03:55:54;;;;;;;0.77;0.70;;;;;;;;;;5137815;28;20235;-65
2022/09/15 03:58:22;;;;;;;1.40;0.80;;;;;;;;;;5137393;28;20285;-65
2022/09/15 04:00:51;;;;;;;0.88;0.70;;;;;;;;;;5137251;28;20551;-65
2022/09/15 04:03:18;;;;;;;0.55;0.52;;;;;;;;;;5137899;28;20199;-65
2022/09/15 04:05:46;;;;;;;1.08;0.60;;;;;;;;;;5137276;28;20566;-65
2022/09/15 04:08:13;;;;;;;0.80;0.80;;;;;;;;;;5137262;28;20222;-65
2022/09/15 04:10:41;;;;;;;0.90;0.70;;;;;;;;;;5138130;28;20489;-65
2022/09/15 04:13:09;;;;;;;0.98;0.80;;;;;;;;;;5137391;28;20289;-66
2022/09/15 04:15:36;;;;;;;0.70;0.60;;;;;;;;;;5138248;28;20555;-65
2022/09/15 04:18:05;;;;;;;0.70;0.57;;;;;;;;;;5137447;28;20293;-65
2022/09/15 04:20:33;;;;;;;0.68;0.60;;;;;;;;;;5140027;27;20574;-65
2022/09/15 04:23:00;;;;;;;0.60;0.60;;;;;;;;;;5141216;27;20298;-65
2022/09/15 04:25:28;;;;;;;0.90;0.80;;;;;;;;;;5140802;27;20202;-65
2022/09/15 04:27:56;;;;;;;1.10;0.68;;;;;;;;;;5140711;27;20324;-65
2022/09/15 04:30:24;;;;;;;0.82;0.63;;;;;;;;;;5141164;27;20306;-65
2022/09/15 04:32:52;;;;;;;0.93;0.65;;;;;;;;;;5141207;27;20297;-65
2022/09/15 04:35:21;;;;;;;0.55;0.50;;;;;;;;;;5140238;27;20282;-65
2022/09/15 04:37:49;;;;;;;0.65;0.45;;;;;;;;;;5140444;27;20198;-65
2022/09/15 04:40:16;;;;;;;0.73;0.60;;;;;;;;;;5139675;27;20336;-65
2022/09/15 04:42:44;;;;;;;0.70;0.63;;;;;;;;;;5139740;27;20700;-65
2022/09/15 04:45:11;;;;;;;0.70;0.60;;;;;;;;;;5139956;27;20320;-66
2022/09/15 04:47:39;;;;;;;0.80;0.70;;;;;;;;;;5140162;27;20290;-65
2022/09/15 04:50:07;;;;;;;0.90;0.60;;;;;;;;;;5137123;27;20602;-65
2022/09/15 04:52:36;;;;;;;0.50;0.50;;;;;;;;;;5137780;27;20202;-65
2022/09/15 04:55:03;;;;;;;0.70;0.60;;;;;;;;;;5138685;27;20285;-65
2022/09/15 04:57:31;;;;;;;0.95;0.60;;;;;;;;;;5138230;27;20241;-65
2022/09/15 04:59:58;;;;;;;0.88;0.70;;;;;;;;;;5138308;27;20815;-65
2022/09/15 05:02:26;;;;;;;0.75;0.60;;;;;;;;;;5116981;28;20199;-65
2022/09/15 05:04:53;;;;;;;0.98;0.65;;;;;;;;;;5116054;28;20217;-65
2022/09/15 05:07:21;;;;;;;0.50;0.50;;;;;;;;;;5116975;28;20297;-65
2022/09/15 05:09:50;;;;;;;0.60;0.50;;;;;;;;;;5117453;28;20237;-65
2022/09/15 05:12:17;;;;;;;0.55;0.50;;;;;;;;;;5136254;27;20281;-65
2022/09/15 05:14:44;;;;;;;0.75;0.60;;;;;;;;;;5137729;27;20203;-65
2022/09/15 05:17:12;;;;;;;0.55;0.55;;;;;;;;;;5137540;27;20305;-65
2022/09/15 05:19:39;;;;;;;1.35;0.50;;;;;;;;;;5137380;27;20293;-65
2022/09/15 05:22:07;;;;;;;0.50;0.50;;;;;;;;;;5118815;27;20230;-65
2022/09/15 05:24:34;;;;;;;0.52;0.52;;;;;;;;;;5116412;28;20310;-66
2022/09/15 05:27:03;;;;;;;0.57;0.45;;;;;;;;;;5115773;28;20286;-65
2022/09/15 05:29:31;;;;;;;0.80;0.70;;;;;;;;;;5116274;28;20258;-65
2022/09/15 05:31:59;;;;;;;0.70;0.60;;;;;;;;;;5132225;27;20233;-65
2022/09/15 05:34:26;;;;;;;0.60;0.50;;;;;;;;;;5137402;27;20241;-65
2022/09/15 05:36:53;;;;;;;0.63;0.60;;;;;;;;;;5136341;27;20293;-65
2022/09/15 05:39:21;;;;;;;0.47;0.47;;;;;;;;;;5137035;27;20225;-65
2022/09/15 05:41:48;;;;;;;0.57;0.57;;;;;;;;;;5121300;27;20191;-65
2022/09/15 05:44:17;;;;;;;0.50;0.50;;;;;;;;;;5122479;27;20226;-65
2022/09/15 05:46:45;;;;;;;0.50;0.50;;;;;;;;;;5136238;27;20198;-65
2022/09/15 05:49:12;;;;;;;1.02;0.77;;;;;;;;;;5136940;27;20226;-66
2022/09/15 05:51:40;;;;;;;1.42;0.80;;;;;;;;;;5136484;27;20610;-65
2022/09/15 05:54:07;;;;;;;1.27;0.73;;;;;;;;;;5136222;27;20210;-65
2022/09/15 05:56:35;;;;;;;1.27;0.90;;;;;;;;;;5137479;27;20304;-66
2022/09/15 05:59:02;;;;;;;2.60;1.13;;;;;;;;;;5137288;27;20198;-66
2022/09/15 06:01:32;;;;;;;2.35;1.35;;;;;;;;;;5124874;27;20271;-66
2022/09/15 06:03:59;;;;;;;2.47;1.42;;;;;;;;;;5137165;27;20203;-65
2022/09/15 06:06:27;;;;;;;2.92;1.50;;;;;;;;;;5137612;27;20202;-66
2022/09/15 06:08:55;;;;;;;2.42;1.40;;;;;;;;;;5137531;27;20314;-65
2022/09/15 06:11:24;;;;;;;2.97;1.48;;;;;;;;;;5137518;27;20204;-65
2022/09/15 06:13:51;;;;;;;2.35;1.38;;;;;;;;;;5137068;27;20205;-65
2022/09/15 06:16:19;;;;;;;2.63;1.52;;;;;;;;;;5137574;27;20233;-65
2022/09/15 06:18:49;;;;;;;3.85;1.75;;;;;;;;;;5137168;27;20237;-69
2022/09/15 06:21:19;;;;;;;3.28;1.88;;;;;;;;;;5127589;27;20198;-70
2022/09/15 06:23:47;;;;;;;3.35;2.00;;;;;;;;;;5135733;27;20209;-65
2022/09/15 06:26:15;;;;;;;4.03;2.20;;;;;;;;;;5137307;27;20205;-66
2022/09/15 06:28:48;;;;;;;4.65;2.22;;;;;;;;;;5136302;27;20275;-66
2022/09/15 06:31:16;;;;;;;5.43;2.20;;;;;;;;;;5136585;27;20213;-66
2022/09/15 06:33:44;;;;;;;4.93;2.05;;;;;;;;;;5136499;27;20643;-65
2022/09/15 06:36:16;;;;;;;4.95;2.30;;;;;;;;;;5136540;27;20208;-66
2022/09/15 06:38:44;;;;;;;6.45;2.90;;;;;;;;;;5136626;27;20215;-65
2022/09/15 06:41:12;;;;;;;5.03;2.22;;;;;;;;;;5136340;27;20206;-65
2022/09/15 06:43:40;;;;;;;5.38;2.45;;;;;;;;;;5136542;27;20235;-65
2022/09/15 06:46:09;;;;;;;4.75;2.30;;;;;;;;;;5135341;27;20202;-65
2022/09/15 06:48:36;;;;;;;5.80;2.72;;;;;;;;;;5130895;27;20310;-65
2022/09/15 06:51:04;;;;;;;6.30;2.65;;;;;;;;;;5129051;27;20668;-65
2022/09/15 06:53:34;;;;;;;4.82;2.80;;;;;;;;;;5136283;27;20292;-65
2022/09/15 06:56:03;;;;;;;5.35;2.70;;;;;;;;;;5136222;27;20476;-65
2022/09/15 06:58:30;;;;;;;4.43;2.58;;;;;;;;;;5135561;27;20603;-65
2022/09/15 07:01:02;;;;;;;5.45;2.53;;;;;;;;;;5136160;27;20528;-65
2022/09/15 07:03:29;;;;;;;4.63;2.40;;;;;;;;;;5135545;27;20234;-66
2022/09/15 07:05:57;;;;;;;4.63;2.92;;;;;;;;;;5136298;27;20202;-65
2022/09/15 07:08:24;;;;;;;5.03;2.83;;;;;;;;;;5133606;27;20226;-65
2022/09/15 07:10:53;;;;;;;5.45;2.58;;;;;;;;;;5126585;27;20202;-65
2022/09/15 07:13:21;;;;;;;5.85;2.85;;;;;;;;;;5135702;27;20546;-66
2022/09/15 07:15:52;;;;;;;6.18;2.97;;;;;;;;;;5135976;27;20255;-65
2022/09/15 07:18:20;;;;;;;5.60;3.00;;;;;;;;;;5135567;27;20289;-66
2022/09/15 07:20:47;;;;;;;5.72;2.90;;;;;;;;;;5134654;28;20202;-66
2022/09/15 07:23:15;;;;;;;4.90;2.78;;;;;;;;;;5135670;28;20267;-65
2022/09/15 07:25:44;;;;;;;4.85;3.00;;;;;;;;;;5135495;28;20285;-65
2022/09/15 07:28:13;;;;;;;5.03;2.85;;;;;;;;;;5134668;28;20194;-66
2022/09/15 07:30:41;;;;;;;3.95;2.78;;;;;;;;;;5132847;28;20234;-66
2022/09/15 07:33:09;;;;;;;5.03;3.05;;;;;;;;;;5135661;27;20590;-66
2022/09/15 07:35:41;;;;;;;5.88;2.50;;;;;;;;;;5135653;27;20581;-64
2022/09/15 07:38:09;;;;;;;4.45;2.67;;;;;;;;;;5134431;28;20567;-64
2022/09/15 07:40:37;;;;;;;4.78;2.95;;;;;;;;;;5115378;28;20233;-65
2022/09/15 07:43:04;;;;;;;5.75;2.97;;;;;;;;;;5115085;28;20575;-65
2022/09/15 07:45:34;;;;;;;4.93;2.97;;;;;;;;;;5114616;28;20237;-65
2022/09/15 07:48:01;;;;;;;5.15;2.83;;;;;;;;;;5115217;28;20631;-65
2022/09/15 07:50:29;;;;;;;5.45;3.00;;;;;;;;;;5134130;27;20619;-64
2022/09/15 07:52:56;;;;;;;4.85;2.63;;;;;;;;;;5134580;27;20292;-65
2022/09/15 07:55:24;;;;;;;5.60;3.17;;;;;;;;;;5137873;27;20233;-64
2022/09/15 07:57:58;;;;;;;5.97;3.30;;;;;;;;;;5138164;27;20198;-64
2022/09/15 08:00:25;;;;;;;5.65;3.05;;;;;;;;;;5137537;27;20186;-65
2022/09/15 08:02:54;;;;;;;5.45;3.08;;;;;;;;;;5138675;27;20705;-65
2022/09/15 08:05:22;;;;;;;4.38;2.92;;;;;;;;;;5139067;27;20802;-66
2022/09/15 08:07:50;;;;;;;5.05;3.30;;;;;;;;;;5138664;27;20231;-65
2022/09/15 08:10:18;;;;;;;4.85;2.88;;;;;;;;;;5137897;27;20560;-65
2022/09/15 08:12:45;;;;;;;4.82;2.65;;;;;;;;;;5138744;27;20224;-65
2022/09/15 08:15:13;;;;;;;4.63;2.90;;;;;;;;;;5138583;27;20290;-65
2022/09/15 08:17:40;;;;;;;4.82;3.00;;;;;;;;;;5139197;27;20206;-65
2022/09/15 08:20:10;;;;;;;4.90;3.00;;;;;;;;;;5138298;27;20289;-65
2022/09/15 08:22:38;;;;;;;5.00;2.70;;;;;;;;;;5139953;27;20198;-65
2022/09/15 08:25:06;;;;;;;4.85;2.83;;;;;;;;;;5139011;27;20205;-65
2022/09/15 08:27:34;;;;;;;5.57;3.13;;;;;;;;;;5137966;27;20210;-65
2022/09/15 08:30:01;;;;;;;5.18;3.10;;;;;;;;;;5138434;27;20282;-65
2022/09/15 08:32:29;;;;;;;4.57;2.97;;;;;;;;;;5137678;27;20286;-65
2022/09/15 08:34:56;;;;;;;4.00;2.78;;;;;;;;;;5138587;27;20234;-66
2022/09/15 08:37:25;;;;;;;4.53;3.08;;;;;;;;;;5138060;27;20301;-65
2022/09/15 08:39:52;;;;;;;3.90;2.95;;;;;;;;;;5137605;27;20201;-66
2022/09/15 08:42:22;;;;;;;5.07;3.10;;;;;;;;;;5138784;27;20226;-66
2022/09/15 08:44:54;;;;;;;4.95;3.13;;;;;;;;;;5137725;27;20242;-66
2022/09/15 08:47:24;;;;;;;4.28;3.00;;;;;;;;;;5138387;27;20202;-66
2022/09/15 08:49:56;;;;;;;5.10;2.88;;;;;;;;;;5137457;27;20230;-65
2022/09/15 08:52:27;;;;;;;3.75;2.90;;;;;;;;;;5137964;27;20710;-65
2022/09/15 08:54:56;;;;;;;5.63;3.13;;;;;;;;;;5138495;27;20293;-66
2022/09/15 08:57:24;;;;;;;4.13;3.17;;;;;;;;;;5138462;27;20243;-65
2022/09/15 08:59:53;;;;;;;4.63;2.80;;;;;;;;;;5137179;27;20190;-66
2022/09/15 09:02:47;;;;;;;5.13;3.10;;;;;;;;;;5139473;27;20267;-65
2022/09/15 09:05:44;;;;;;;4.45;2.90;;;;;;;;;;5138592;27;20267;-65
2022/09/15 09:08:21;;;;;;;4.93;2.90;;;;;;;;;;5034812;28;20298;-65
2022/09/15 09:10:51;;;;;;;5.35;3.35;;;;;;;;;;5101187;28;20322;-65
2022/09/15 09:13:24;;;;;;;4.50;3.13;;;;;;;;;;5116715;28;20667;-65
2022/09/15 09:15:57;;;;;;;4.30;2.90;;;;;;;;;;5117556;28;20758;-65
2022/09/15 09:18:37;;;;;;;3.83;2.85;;;;;;;;;;5117393;27;20219;-65
2022/09/15 09:21:09;;;;;;;3.95;3.15;;;;;;;;;;5117421;28;20297;-65
2022/09/15 09:23:42;;;;;;;4.65;3.15;;;;;;;;;;5118548;28;20227;-66
2022/09/15 09:26:12;;;;;;;4.97;3.00;;;;;;;;;;5117530;28;20294;-65
2022/09/15 09:28:41;;;;;;;3.40;2.90;;;;;;;;;;5119279;27;20203;-65
2022/09/15 09:31:15;;;;;;;4.40;2.97;;;;;;;;;;5137867;27;20297;-65
2022/09/15 09:33:44;;;;;;;4.47;3.20;;;;;;;;;;5138118;27;20202;-65
2022/09/15 09:36:12;;;;;;;4.38;2.72;;;;;;;;;;5137402;27;20283;-65
2022/09/15 09:38:42;;;;;;;4.20;2.80;;;;;;;;;;5136249;27;20261;-65
2022/09/15 09:41:13;;;;;;;4.18;3.00;;;;;;;;;;5137961;27;20586;-65
2022/09/15 09:43:41;;;;;;;3.63;2.88;;;;;;;;;;5137571;27;20792;-65
2022/09/15 09:46:15;;;;;;;3.83;2.80;;;;;;;;;;5136778;27;20210;-65
2022/09/15 09:48:45;;;;;;;3.17;2.65;;;;;;;;;;5135158;27;20276;-65
2022/09/15 09:51:27;;;;;;;3.40;2.63;;;;;;;;;;5135948;27;20210;-65
2022/09/15 09:53:56;;;;;;;5.28;3.20;;;;;;;;;;5132224;27;20229;-65
2022/09/15 09:56:24;;;;;;;4.72;3.05;;;;;;;;;;5136453;27;20238;-65
2022/09/15 09:58:52;;;;;;;4.68;2.95;;;;;;;;;;5136053;27;20195;-65
2022/09/15 10:01:21;;;;;;;4.15;2.80;;;;;;;;;;5136699;27;20237;-65
2022/09/15 10:03:48;;;;;;;2.92;2.40;;;;;;;;;;5134333;27;20228;-65
2022/09/15 10:06:17;;;;;;;3.58;2.60;;;;;;;;;;5136420;27;20194;-65
2022/09/15 10:08:55;;;;;;;3.40;2.53;;;;;;;;;;5135297;27;20241;-65
2022/09/15 10:11:39;;;;;;;2.85;2.33;;;;;;;;;;5135495;27;20601;-65
2022/09/15 10:14:06;;;;;;;4.65;2.83;;;;;;;;;;5135103;27;20295;-65
2022/09/15 10:16:34;;;;;;;3.45;2.65;;;;;;;;;;5136146;27;20588;-65
2022/09/15 10:19:02;;;;;;;3.10;2.35;;;;;;;;;;5135270;27;20186;-65
2022/09/15 10:21:29;;;;;;;4.47;2.70;;;;;;;;;;5135563;27;20285;-65
2022/09/15 10:23:57;;;;;;;3.83;2.55;;;;;;;;;;5134640;27;20228;-65
2022/09/15 10:26:33;;;;;;;3.33;2.55;;;;;;;;;;5134892;27;20202;-66
2022/09/15 10:29:11;;;;;;;2.97;2.65;;;;;;;;;;5134388;27;20194;-66
2022/09/15 10:31:38;;;;;;;3.75;2.55;;;;;;;;;;5136092;27;20208;-65
2022/09/15 10:34:24;;;;;;;3.00;2.33;;;;;;;;;;5135489;27;20206;-65
2022/09/15 10:36:53;;;;;;;2.80;2.30;;;;;;;;;;5134005;27;20228;-65
2022/09/15 10:39:23;;;;;;;3.80;2.78;;;;;;;;;;5134415;27;20284;-65
2022/09/15 10:42:00;;;;;;;2.88;2.58;;;;;;;;;;5135273;27;20811;-65
2022/09/15 10:44:32;;;;;;;3.10;2.35;;;;;;;;;;5135356;27;20246;-65
2022/09/15 10:47:03;;;;;;;3.47;2.45;;;;;;;;;;5134771;27;20213;-65
2022/09/15 10:49:38;;;;;;;2.60;2.40;;;;;;;;;;5134492;27;20214;-65
2022/09/15 10:52:11;;;;;;;2.88;2.35;;;;;;;;;;5134122;27;20570;-65
2022/09/15 10:54:47;;;;;;;2.63;2.30;;;;;;;;;;5134697;27;20340;-65
2022/09/15 10:57:22;;;;;;;2.88;2.28;;;;;;;;;;5133924;27;20388;-65
2022/09/15 10:59:52;;;;;;;3.33;2.13;;;;;;;;;;5133958;27;20229;-65
2022/09/15 11:02:26;;;;;;;3.13;2.15;;;;;;;;;;5133651;27;20263;-65
2022/09/15 11:05:04;;;;;;;2.47;2.20;;;;;;;;;;5135708;27;20259;-64
2022/09/15 11:07:34;;;;;;;2.88;2.03;;;;;;;;;;5134658;27;20202;-64
2022/09/15 11:10:06;;;;;;;2.55;2.20;;;;;;;;;;5134248;27;20473;-65
2022/09/15 11:12:42;;;;;;;2.15;1.90;;;;;;;;;;5134170;27;20204;-65
2022/09/15 11:15:25;;;;;;;3.17;2.30;;;;;;;;;;5134427;27;20202;-65
2022/09/15 11:18:11;;;;;;;2.33;2.10;;;;;;;;;;5134104;27;20206;-65
2022/09/15 11:20:54;;;;;;;2.72;2.10;;;;;;;;;;5133459;27;20201;-65
2022/09/15 11:23:24;;;;;;;2.45;2.00;;;;;;;;;;5134032;27;20228;-65
2022/09/15 11:25:53;;;;;;;2.60;2.30;;;;;;;;;;5134252;27;20458;-66
2022/09/15 11:28:23;;;;;;;2.55;1.95;;;;;;;;;;5134317;27;20202;-65
2022/09/15 11:30:54;;;;;;;2.30;1.85;;;;;;;;;;5136799;27;20302;-65
2022/09/15 11:33:24;;;;;;;2.90;2.25;;;;;;;;;;5138026;27;20285;-65
2022/09/15 11:35:54;;;;;;;2.38;2.17;;;;;;;;;;5138761;27;20241;-66
2022/09/15 11:38:30;;;;;;;2.58;2.38;;;;;;;;;;5138885;27;20567;-65
2022/09/15 11:41:00;;;;;;;2.45;2.25;;;;;;;;;;5136399;27;20585;-65
2022/09/15 11:43:34;;;;;;;2.30;2.08;;;;;;;;;;5137951;27;20864;-66
2022/09/15 11:46:03;;;;;;;2.30;2.10;;;;;;;;;;5138399;27;20656;-66
2022/09/15 11:48:33;;;;;;;2.55;2.35;;;;;;;;;;5137693;27;20586;-66
2022/09/15 11:51:02;;;;;;;2.60;2.20;;;;;;;;;;5137481;27;20284;-65
2022/09/15 11:53:34;;;;;;;2.95;2.03;;;;;;;;;;5138660;27;20202;-65
2022/09/15 11:56:07;;;;;;;2.97;2.00;;;;;;;;;;5138329;27;20198;-65
2022/09/15 11:58:40;;;;;;;2.00;1.80;;;;;;;;;;5138033;27;20210;-66
2022/09/15 12:01:09;;;;;;;2.35;2.15;;;;;;;;;;5136467;27;20285;-65
2022/09/15 12:03:38;;;;;;;1.95;1.75;;;;;;;;;;5137851;27;20554;-65
2022/09/15 12:06:08;;;;;;;1.88;1.77;;;;;;;;;;5138233;27;20680;-65
2022/09/15 12:08:38;;;;;;;2.17;1.98;;;;;;;;;;5136987;27;20577;-65
2022/09/15 12:11:08;;;;;;;2.20;2.00;;;;;;;;;;5134932;27;20249;-65
2022/09/15 12:13:37;;;;;;;1.80;1.70;;;;;;;;;;5136839;27;20197;-65
2022/09/15 12:16:05;;;;;;;1.90;1.80;;;;;;;;;;5137338;27;20290;-65
2022/09/15 12:18:36;;;;;;;2.30;2.10;;;;;;;;;;5136799;27;20285;-65
2022/09/15 12:21:06;;;;;;;2.75;1.90;;;;;;;;;;5135764;27;20221;-66
2022/09/15 12:23:38;;;;;;;1.98;1.77;;;;;;;;;;5136606;27;20283;-65
2022/09/15 12:26:11;;;;;;;2.15;1.95;;;;;;;;;;5135936;27;20264;-65
2022/09/15 12:28:41;;;;;;;2.13;1.92;;;;;;;;;;5135696;27;20263;-65
2022/09/15 12:31:13;;;;;;;2.08;1.73;;;;;;;;;;5136130;27;20218;-65
2022/09/15 12:33:47;;;;;;;2.33;2.08;;;;;;;;;;5136999;27;20234;-65
2022/09/15 12:36:35;;;;;;;2.22;1.90;;;;;;;;;;5137057;27;20210;-66
2022/09/15 12:39:04;;;;;;;2.10;1.90;;;;;;;;;;5129273;27;20550;-65
2022/09/15 12:41:32;;;;;;;1.90;1.80;;;;;;;;;;5136845;27;20198;-65
2022/09/15 12:44:03;;;;;;;1.92;1.73;;;;;;;;;;5136687;27;20725;-65
2022/09/15 12:46:31;;;;;;;1.85;1.75;;;;;;;;;;5136250;27;20281;-65
2022/09/15 12:49:01;;;;;;;2.00;1.80;;;;;;;;;;5136912;27;20293;-65
2022/09/15 12:51:30;;;;;;;1.77;1.67;;;;;;;;;;5116351;28;20238;-65
2022/09/15 12:53:59;;;;;;;2.65;1.95;;;;;;;;;;5115821;28;20203;-65
2022/09/15 12:56:27;;;;;;;1.75;1.65;;;;;;;;;;5115991;28;20198;-65
2022/09/15 12:58:55;;;;;;;2.45;1.70;;;;;;;;;;5117074;28;20310;-65
2022/09/15 13:01:37;;;;;;;1.70;1.60;;;;;;;;;;5135732;27;20628;-65
2022/09/15 13:04:25;;;;;;;1.67;1.58;;;;;;;;;;5136387;27;20202;-65
2022/09/15 13:07:19;;;;;;;2.05;1.75;;;;;;;;;;5136055;27;20198;-65
2022/09/15 13:09:57;;;;;;;1.73;1.63;;;;;;;;;;5076720;27;20694;-64
2022/09/15 13:12:27;;;;;;;2.22;1.83;;;;;;;;;;5137145;27;20300;-65
2022/09/15 13:14:55;;;;;;;1.55;1.45;;;;;;;;;;5136567;27;20241;-65
2022/09/15 13:17:25;;;;;;;2.08;1.88;;;;;;;;;;5136480;27;20265;-65
2022/09/15 13:19:54;;;;;;;1.73;1.60;;;;;;;;;;5136980;27;20293;-65
2022/09/15 13:22:28;;;;;;;1.83;1.73;;;;;;;;;;5137452;27;20233;-66
2022/09/15 13:24:58;;;;;;;1.80;1.50;;;;;;;;;;5136898;27;20762;-65
2022/09/15 13:27:28;;;;;;;1.70;1.60;;;;;;;;;;5136734;27;20203;-65
2022/09/15 13:30:01;;;;;;;1.83;1.60;;;;;;;;;;5136919;27;20308;-65
2022/09/15 13:32:42;;;;;;;1.75;1.65;;;;;;;;;;5136558;27;20194;-66
2022/09/15 13:35:19;;;;;;;2.05;1.50;;;;;;;;;;5136588;27;20818;-66
2022/09/15 13:37:58;;;;;;;1.52;1.40;;;;;;;;;;5135744;27;20233;-65
2022/09/15 13:40:32;;;;;;;2.33;1.70;;;;;;;;;;5135079;27;20290;-65
2022/09/15 13:43:09;;;;;;;1.98;1.67;;;;;;;;;;5136166;27;20202;-65
2022/09/15 13:45:51;;;;;;;1.63;1.48;;;;;;;;;;5115969;27;20337;-65
2022/09/15 13:48:35;;;;;;;1.60;1.50;;;;;;;;;;5115371;28;20242;-65
2022/09/15 13:51:04;;;;;;;1.70;1.60;;;;;;;;;;5114343;28;20725;-66
2022/09/15 13:53:45;;;;;;;1.63;1.52;;;;;;;;;;5114219;28;20209;-66
2022/09/15 13:56:20;;;;;;;1.67;1.58;;;;;;;;;;5114164;28;20299;-65
2022/09/15 13:58:48;;;;;;;1.77;1.58;;;;;;;;;;5114561;28;20283;-66
2022/09/15 14:01:16;;;;;;;1.77;1.67;;;;;;;;;;5114153;28;20196;-65
2022/09/15 14:03:47;;;;;;;1.55;1.45;;;;;;;;;;5114511;28;20501;-65
2022/09/15 14:06:16;;;;;;;1.48;1.38;;;;;;;;;;5114466;28;20235;-65
2022/09/15 14:08:44;;;;;;;1.45;1.35;;;;;;;;;;5115042;28;20641;-66
2022/09/15 14:11:14;;;;;;;1.80;1.52;;;;;;;;;;5114123;28;20258;-65
2022/09/15 14:13:43;;;;;;;1.48;1.38;;;;;;;;;;5113923;28;20235;-65
2022/09/15 14:16:22;;;;;;;1.50;1.35;;;;;;;;;;5115000;28;20235;-64
2022/09/15 14:18:51;;;;;;;1.65;1.55;;;;;;;;;;5113529;28;20244;-65
2022/09/15 14:21:21;;;;;;;1.40;1.30;;;;;;;;;;5114402;28;20195;-65
2022/09/15 14:23:49;;;;;;;1.70;1.60;;;;;;;;;;5113501;28;20255;-65
2022/09/15 14:26:17;;;;;;;1.60;1.50;;;;;;;;;;5113975;28;20298;-65
2022/09/15 14:28:50;;;;;;;1.60;1.33;;;;;;;;;;5114216;28;20203;-65
2022/09/15 14:31:17;;;;;;;1.67;1.58;;;;;;;;;;5113093;28;20218;-65
2022/09/15 14:33:47;;;;;;;1.65;1.55;;;;;;;;;;5114046;28;20326;-65
2022/09/15 14:36:22;;;;;;;1.67;1.33;;;;;;;;;;5113273;28;20211;-65
2022/09/15 14:39:03;;;;;;;1.33;1.23;;;;;;;;;;5114434;28;20195;-65
2022/09/15 14:41:33;;;;;;;1.42;1.33;;;;;;;;;;5114162;28;20223;-65
2022/09/15 14:44:00;;;;;;;1.80;1.70;;;;;;;;;;5120272;27;20664;-64
2022/09/15 14:46:36;;;;;;;1.50;1.40;;;;;;;;;;5132578;27;20241;-65
2022/09/15 14:49:09;;;;;;;2.15;1.60;;;;;;;;;;5134105;27;20233;-64
2022/09/15 14:51:39;;;;;;;2.90;1.60;;;;;;;;;;5113734;27;20254;-65
2022/09/15 14:54:08;;;;;;;1.50;1.40;;;;;;;;;;5114311;28;20514;-65
2022/09/15 14:56:37;;;;;;;1.52;1.42;;;;;;;;;;5114001;28;20228;-66
2022/09/15 14:59:06;;;;;;;1.48;1.38;;;;;;;;;;5112924;28;20286;-66
2022/09/15 15:01:36;;;;;;;1.48;1.38;;;;;;;;;;5116334;27;20223;-65